Time;durP1;ratioP1;P1;durP2;ratioP2;P2;SDS_P1;SDS_P2;PMS_P1;PMS_P2;Temp;Humidity;BMP_temperature;BMP_pressure;BME280_temperature;BME280_humidity;BME280_pressure;Samples;Min_cycle;Max_cycle;Signal;HPM_P1;HPM_P2
2023/07/15 00:01:23;;;;;;;6.47;2.90;;;19.30;99.90;;;;;;5088428;28;20119;-76
2023/07/15 00:03:51;;;;;;;7.55;3.10;;;19.30;99.90;;;;;;5087839;28;20037;-76
2023/07/15 00:06:21;;;;;;;8.65;3.20;;;19.30;99.90;;;;;;5071402;28;20044;-76
2023/07/15 00:08:48;;;;;;;8.82;3.15;;;19.30;99.90;;;;;;5087751;28;20079;-76
2023/07/15 00:11:37;;;;;;;7.20;3.20;;;19.30;99.90;;;;;;5088026;28;20128;-76
2023/07/15 00:14:18;;;;;;;6.38;2.75;;;19.30;99.90;;;;;;5071458;28;20381;-76
2023/07/15 00:16:45;;;;;;;9.20;3.10;;;19.30;99.90;;;;;;5070520;28;20545;-77
2023/07/15 00:19:12;;;;;;;6.93;3.03;;;19.30;99.90;;;;;;5087435;28;20044;-76
2023/07/15 00:21:39;;;;;;;4.70;2.80;;;19.30;99.90;;;;;;5071101;28;20043;-76
2023/07/15 00:24:07;;;;;;;5.13;2.67;;;19.40;99.90;;;;;;5071467;28;20033;-77
2023/07/15 00:26:34;;;;;;;6.55;3.35;;;19.40;99.90;;;;;;5088086;28;20033;-76
2023/07/15 00:29:03;;;;;;;4.90;2.60;;;19.30;99.90;;;;;;5070669;28;20040;-77
2023/07/15 00:31:31;;;;;;;5.45;3.05;;;19.30;99.90;;;;;;5070958;28;20052;-76
2023/07/15 00:33:58;;;;;;;8.43;3.63;;;19.30;99.90;;;;;;5070347;28;20689;-76
2023/07/15 00:36:26;;;;;;;5.18;3.00;;;19.30;99.90;;;;;;5087668;28;20047;-76
2023/07/15 00:38:53;;;;;;;6.03;3.00;;;19.20;99.90;;;;;;5086595;28;20064;-76
2023/07/15 00:41:29;;;;;;;6.90;3.10;;;19.20;99.90;;;;;;5104431;28;20129;-77
2023/07/15 00:43:58;;;;;;;7.25;3.03;;;19.20;99.90;;;;;;5086782;28;20045;-76
2023/07/15 00:46:26;;;;;;;7.00;2.97;;;19.20;99.90;;;;;;5087525;28;20141;-76
2023/07/15 00:48:53;;;;;;;6.25;2.75;;;19.10;99.90;;;;;;5096510;28;20066;-76
2023/07/15 00:51:21;;;;;;;6.63;2.90;;;19.10;99.90;;;;;;5070679;28;20040;-76
2023/07/15 00:53:49;;;;;;;5.07;2.88;;;19.10;99.90;;;;;;5086896;28;20480;-76
2023/07/15 00:56:17;;;;;;;4.72;2.88;;;19.10;99.90;;;;;;5087285;28;20052;-76
2023/07/15 00:58:43;;;;;;;5.38;2.92;;;19.10;99.90;;;;;;5053502;28;20639;-76
2023/07/15 01:01:12;;;;;;;5.43;3.05;;;19.10;99.90;;;;;;5054229;28;20041;-76
2023/07/15 01:03:40;;;;;;;6.15;2.80;;;19.10;99.90;;;;;;5038043;28;20036;-77
2023/07/15 01:06:07;;;;;;;8.57;3.25;;;19.10;99.90;;;;;;5053647;28;20417;-76
2023/07/15 01:08:33;;;;;;;6.95;3.00;;;19.10;99.90;;;;;;5069712;28;20048;-76
2023/07/15 01:11:00;;;;;;;5.93;2.40;;;19.10;99.90;;;;;;5053404;28;20501;-76
2023/07/15 01:13:27;;;;;;;5.43;2.80;;;19.10;99.90;;;;;;5070658;28;20523;-76
2023/07/15 01:15:53;;;;;;;6.63;3.05;;;19.10;99.90;;;;;;5069724;28;20067;-76
2023/07/15 01:18:20;;;;;;;5.45;3.08;;;19.10;99.90;;;;;;5070437;28;20521;-76
2023/07/15 01:20:47;;;;;;;4.53;2.70;;;19.10;99.90;;;;;;5053256;28;20127;-76
2023/07/15 01:23:13;;;;;;;6.15;3.33;;;19.10;99.90;;;;;;5050325;28;20044;-76
2023/07/15 01:25:40;;;;;;;7.85;3.08;;;19.10;99.90;;;;;;5034356;28;20037;-76
2023/07/15 01:28:08;;;;;;;5.15;2.80;;;19.10;99.90;;;;;;5033440;28;20053;-76
2023/07/15 01:30:35;;;;;;;5.93;2.80;;;19.00;99.90;;;;;;5044965;28;20036;-76
2023/07/15 01:33:01;;;;;;;6.95;3.17;;;19.00;99.90;;;;;;5070121;28;20043;-76
2023/07/15 01:35:28;;;;;;;5.25;2.72;;;19.00;99.90;;;;;;5070232;28;20040;-76
2023/07/15 01:37:54;;;;;;;5.85;2.97;;;19.00;99.90;;;;;;5102825;28;20139;-76
2023/07/15 01:40:21;;;;;;;6.00;3.90;;;19.00;99.90;;;;;;5069394;28;20663;-76
2023/07/15 01:42:48;;;;;;;6.28;3.35;;;19.00;99.90;;;;;;5102871;28;20064;-76
2023/07/15 01:45:18;;;;;;;4.65;2.70;;;19.00;99.90;;;;;;5103249;28;20127;-76
2023/07/15 01:47:44;;;;;;;5.78;2.63;;;19.00;99.90;;;;;;5086785;28;20131;-76
2023/07/15 01:50:11;;;;;;;6.68;3.28;;;19.00;99.90;;;;;;5086037;28;20135;-76
2023/07/15 01:52:38;;;;;;;5.90;2.67;;;19.00;99.90;;;;;;5086155;28;20052;-76
2023/07/15 01:55:05;;;;;;;5.07;2.72;;;19.00;99.90;;;;;;5103043;28;20076;-76
2023/07/15 01:57:32;;;;;;;7.75;3.08;;;19.00;99.90;;;;;;5069924;28;20045;-76
2023/07/15 01:59:59;;;;;;;6.70;2.58;;;19.00;99.90;;;;;;5102695;28;20033;-76
2023/07/15 02:02:27;;;;;;;7.00;3.13;;;19.00;99.90;;;;;;5086095;28;20033;-76
2023/07/15 02:04:53;;;;;;;5.97;2.67;;;19.10;99.90;;;;;;5085719;28;20028;-76
2023/07/15 02:07:20;;;;;;;8.15;2.45;;;19.10;99.90;;;;;;5069727;28;20040;-76
2023/07/15 02:09:47;;;;;;;5.65;2.97;;;19.10;99.90;;;;;;5069685;28;20041;-76
2023/07/15 02:12:13;;;;;;;6.30;3.08;;;19.10;99.90;;;;;;5085774;28;20037;-76
2023/07/15 02:14:40;;;;;;;5.18;2.58;;;19.10;99.90;;;;;;5119718;28;20127;-76
2023/07/15 02:17:07;;;;;;;5.78;2.78;;;19.10;99.90;;;;;;5069237;28;20500;-76
2023/07/15 02:19:34;;;;;;;5.22;2.60;;;19.10;99.90;;;;;;5071022;28;20132;-76
2023/07/15 02:22:01;;;;;;;5.05;2.53;;;19.10;99.90;;;;;;5073222;28;20116;-76
2023/07/15 02:24:29;;;;;;;6.90;2.63;;;19.10;99.90;;;;;;5089949;28;20123;-76
2023/07/15 02:26:55;;;;;;;4.70;2.50;;;19.10;99.90;;;;;;5106138;28;20439;-76
2023/07/15 02:29:22;;;;;;;5.53;2.65;;;19.20;99.90;;;;;;5073661;28;20048;-76
2023/07/15 02:31:49;;;;;;;6.78;2.80;;;19.30;99.90;;;;;;5089885;28;20032;-76
2023/07/15 02:34:16;;;;;;;5.65;2.33;;;19.30;99.90;;;;;;5089064;28;20048;-76
2023/07/15 02:36:43;;;;;;;4.75;2.10;;;19.30;99.90;;;;;;5106582;28;20488;-76
2023/07/15 02:39:09;;;;;;;8.05;2.60;;;19.30;99.90;;;;;;5072805;28;20399;-76
2023/07/15 02:41:36;;;;;;;5.30;2.40;;;19.30;99.90;;;;;;5090016;28;20056;-76
2023/07/15 02:44:03;;;;;;;5.65;2.60;;;19.30;99.90;;;;;;5105633;28;20110;-76
2023/07/15 02:46:29;;;;;;;5.55;2.38;;;19.10;99.90;;;;;;5106273;28;20035;-76
2023/07/15 02:48:56;;;;;;;4.28;2.13;;;19.20;99.90;;;;;;5073020;28;20080;-76
2023/07/15 02:51:24;;;;;;;5.63;2.70;;;19.10;99.90;;;;;;5089114;28;20492;-76
2023/07/15 02:53:51;;;;;;;4.25;2.42;;;19.10;99.90;;;;;;5089636;28;20041;-76
2023/07/15 02:56:17;;;;;;;5.90;3.05;;;19.00;99.90;;;;;;5088754;28;20131;-76
2023/07/15 02:58:44;;;;;;;6.40;2.50;;;19.00;99.90;;;;;;5105971;28;20532;-77
2023/07/15 03:01:11;;;;;;;6.80;2.85;;;18.90;99.90;;;;;;5089051;28;20045;-76
2023/07/15 03:03:38;;;;;;;6.43;2.50;;;18.90;99.90;;;;;;5072575;28;20102;-76
2023/07/15 03:06:05;;;;;;;5.57;2.25;;;18.80;99.90;;;;;;5088742;28;20397;-76
2023/07/15 03:08:31;;;;;;;4.72;2.50;;;18.80;99.90;;;;;;5088624;28;20048;-76
2023/07/15 03:10:58;;;;;;;4.45;2.35;;;18.80;99.90;;;;;;5088998;28;20083;-76
2023/07/15 03:13:25;;;;;;;3.80;2.38;;;18.90;99.90;;;;;;5071562;28;20048;-76
2023/07/15 03:15:55;;;;;;;5.95;2.20;;;18.90;99.90;;;;;;5105337;28;20048;-76
2023/07/15 03:18:25;;;;;;;6.13;2.50;;;18.90;99.90;;;;;;5070939;28;20128;-76
2023/07/15 03:20:52;;;;;;;6.88;2.60;;;19.00;99.90;;;;;;5104294;28;20080;-76
2023/07/15 03:23:19;;;;;;;8.60;2.58;;;19.00;99.90;;;;;;5071132;28;20427;-76
2023/07/15 03:25:45;;;;;;;4.57;2.20;;;19.00;99.90;;;;;;5105139;28;20040;-76
2023/07/15 03:28:12;;;;;;;7.82;2.50;;;19.00;99.90;;;;;;5071472;28;20044;-77
2023/07/15 03:30:39;;;;;;;6.90;2.30;;;19.00;99.90;;;;;;5088197;28;20488;-76
2023/07/15 03:33:05;;;;;;;4.65;2.42;;;19.00;99.90;;;;;;5087931;28;20097;-76
2023/07/15 03:35:32;;;;;;;6.05;2.70;;;19.00;99.90;;;;;;5087917;28;20051;-76
2023/07/15 03:37:59;;;;;;;5.22;2.22;;;18.90;99.90;;;;;;5071638;28;20121;-76
2023/07/15 03:40:26;;;;;;;5.65;2.20;;;18.90;99.90;;;;;;5105216;28;20044;-76
2023/07/15 03:42:53;;;;;;;6.28;2.15;;;18.90;99.90;;;;;;5088251;28;20037;-76
2023/07/15 03:45:20;;;;;;;4.20;2.17;;;18.90;99.90;;;;;;5088399;28;20041;-76
2023/07/15 03:47:47;;;;;;;5.95;2.08;;;18.80;99.90;;;;;;5088602;28;20075;-76
2023/07/15 03:50:14;;;;;;;6.10;2.42;;;18.80;99.90;;;;;;5087867;28;20501;-76
2023/07/15 03:52:41;;;;;;;6.53;2.08;;;18.80;99.90;;;;;;5071883;28;20036;-76
2023/07/15 03:55:08;;;;;;;6.13;2.25;;;18.80;99.90;;;;;;5088295;28;20127;-76
2023/07/15 03:57:35;;;;;;;11.48;2.40;;;18.80;99.90;;;;;;5088518;28;20128;-76
2023/07/15 04:00:06;;;;;;;4.50;2.47;;;18.80;99.90;;;;;;5088082;28;20059;-76
2023/07/15 04:02:33;;;;;;;6.20;2.40;;;18.80;99.90;;;;;;5087809;28;20048;-76
2023/07/15 04:05:00;;;;;;;4.85;2.40;;;18.80;99.90;;;;;;5088514;28;20039;-76
2023/07/15 04:07:26;;;;;;;4.15;2.05;;;18.70;99.90;;;;;;5087706;28;20043;-76
2023/07/15 04:09:53;;;;;;;4.97;2.50;;;18.70;99.90;;;;;;5104321;28;20020;-76
2023/07/15 04:12:21;;;;;;;9.45;2.53;;;18.70;99.90;;;;;;5084061;28;20037;-76
2023/07/15 04:14:48;;;;;;;6.82;2.10;;;18.70;99.90;;;;;;5035870;28;20044;-76
2023/07/15 04:17:14;;;;;;;7.45;2.42;;;18.80;99.90;;;;;;5034434;28;20044;-76
2023/07/15 04:19:41;;;;;;;7.72;2.05;;;18.70;99.90;;;;;;5088496;28;20086;-76
2023/07/15 04:22:08;;;;;;;6.20;2.40;;;18.70;99.90;;;;;;5087885;28;20109;-76
2023/07/15 04:24:35;;;;;;;4.43;2.20;;;18.70;99.90;;;;;;5070679;28;20485;-76
2023/07/15 04:27:02;;;;;;;7.90;2.50;;;18.70;99.90;;;;;;5088028;28;20479;-76
2023/07/15 04:29:30;;;;;;;7.80;2.35;;;18.70;99.90;;;;;;5087199;28;20051;-76
2023/07/15 04:31:57;;;;;;;5.30;2.67;;;18.70;99.90;;;;;;5070677;28;20051;-76
2023/07/15 04:34:24;;;;;;;5.95;2.25;;;18.60;99.90;;;;;;5070568;28;20093;-76
2023/07/15 04:36:51;;;;;;;4.68;2.10;;;18.60;99.90;;;;;;5070929;28;20511;-76
2023/07/15 04:39:18;;;;;;;6.95;2.38;;;18.70;99.90;;;;;;5053701;28;20132;-76
2023/07/15 04:41:44;;;;;;;6.63;2.60;;;18.60;99.90;;;;;;5054026;28;20097;-77
2023/07/15 04:44:11;;;;;;;4.57;2.15;;;18.60;99.90;;;;;;5053294;28;20057;-77
2023/07/15 04:46:38;;;;;;;5.15;2.35;;;18.60;99.90;;;;;;5054002;28;20400;-76
2023/07/15 04:49:04;;;;;;;6.07;2.60;;;18.70;99.90;;;;;;5054278;28;20622;-76
2023/07/15 04:51:31;;;;;;;4.22;2.20;;;18.70;99.90;;;;;;5053576;28;20044;-76
2023/07/15 04:53:58;;;;;;;4.63;2.08;;;18.70;99.90;;;;;;5054618;28;20048;-76
2023/07/15 04:56:25;;;;;;;5.00;2.55;;;18.70;99.90;;;;;;5053929;28;20133;-76
2023/07/15 04:58:52;;;;;;;4.75;2.22;;;18.70;99.90;;;;;;5054228;28;20910;-76
2023/07/15 05:01:19;;;;;;;3.72;2.05;;;18.70;99.90;;;;;;5069888;28;20496;-76
2023/07/15 05:03:45;;;;;;;3.70;2.15;;;18.80;99.90;;;;;;5087304;28;20052;-76
2023/07/15 05:06:13;;;;;;;5.00;2.33;;;18.90;99.90;;;;;;5103690;28;20067;-76
2023/07/15 05:08:41;;;;;;;3.53;1.90;;;19.00;99.90;;;;;;5070107;28;20043;-76
2023/07/15 05:11:08;;;;;;;4.90;2.20;;;19.10;99.90;;;;;;5087064;28;20051;-76
2023/07/15 05:13:34;;;;;;;4.57;2.20;;;19.20;99.90;;;;;;5086018;28;20040;-76
2023/07/15 05:16:01;;;;;;;4.80;2.10;;;19.20;99.90;;;;;;5070301;28;20042;-76
2023/07/15 05:18:28;;;;;;;6.20;2.30;;;19.20;99.90;;;;;;5069912;28;20415;-77
2023/07/15 05:20:54;;;;;;;6.00;2.22;;;19.30;99.90;;;;;;5070196;28;20051;-76
2023/07/15 05:23:23;;;;;;;5.18;2.22;;;19.30;99.90;;;;;;5069344;28;20128;-76
2023/07/15 05:25:49;;;;;;;5.78;2.25;;;19.40;99.90;;;;;;5069976;28;20043;-76
2023/07/15 05:28:16;;;;;;;5.50;2.40;;;19.40;99.90;;;;;;5086613;28;20488;-77
2023/07/15 05:30:43;;;;;;;4.47;2.22;;;19.40;99.90;;;;;;5086306;28;20042;-76
2023/07/15 05:33:09;;;;;;;5.50;2.20;;;19.50;99.90;;;;;;5069854;28;20044;-76
2023/07/15 05:35:36;;;;;;;5.43;2.42;;;19.60;99.90;;;;;;5085966;28;20127;-76
2023/07/15 05:38:03;;;;;;;4.35;2.08;;;19.60;99.90;;;;;;5103050;28;20404;-76
2023/07/15 05:40:29;;;;;;;4.55;2.22;;;19.70;99.90;;;;;;5086150;28;20399;-76
2023/07/15 05:42:56;;;;;;;4.38;1.95;;;19.70;99.90;;;;;;5086037;28;20512;-76
2023/07/15 05:45:23;;;;;;;5.57;2.70;;;19.80;99.90;;;;;;5070273;28;20496;-76
2023/07/15 05:47:49;;;;;;;5.97;2.28;;;19.80;99.90;;;;;;5069535;28;20048;-76
2023/07/15 05:50:16;;;;;;;5.18;2.00;;;19.90;99.90;;;;;;5069851;28;20040;-76
2023/07/15 05:52:43;;;;;;;7.07;2.22;;;19.90;99.90;;;;;;5086194;28;20047;-76
2023/07/15 05:55:09;;;;;;;6.13;2.53;;;19.90;99.90;;;;;;5088839;28;20043;-77
2023/07/15 05:57:36;;;;;;;4.95;2.20;;;20.00;99.90;;;;;;5106755;28;20052;-76
2023/07/15 06:00:04;;;;;;;4.80;2.03;;;20.10;99.90;;;;;;5090586;28;20040;-76
2023/07/15 06:02:31;;;;;;;5.15;2.17;;;20.10;99.90;;;;;;5073209;28;20117;-76
2023/07/15 06:04:57;;;;;;;3.92;2.08;;;20.20;99.90;;;;;;5106752;28;20036;-76
2023/07/15 06:07:24;;;;;;;6.45;2.45;;;20.30;99.90;;;;;;5073947;28;20494;-76
2023/07/15 06:09:52;;;;;;;4.00;2.03;;;20.40;99.90;;;;;;5091237;28;20043;-76
2023/07/15 06:12:18;;;;;;;5.65;2.20;;;20.40;99.90;;;;;;5108871;28;20048;-76
2023/07/15 06:14:45;;;;;;;7.60;2.42;;;20.50;99.90;;;;;;5090283;28;20036;-76
2023/07/15 06:17:12;;;;;;;4.40;2.22;;;20.50;99.90;;;;;;5106699;28;20041;-76
2023/07/15 06:19:39;;;;;;;9.95;2.67;;;20.60;99.90;;;;;;5089697;28;20048;-76
2023/07/15 06:22:06;;;;;;;4.15;2.00;;;20.60;99.90;;;;;;5106488;28;20701;-77
2023/07/15 06:24:33;;;;;;;4.88;2.08;;;20.80;99.90;;;;;;5089498;28;20115;-76
2023/07/15 06:26:59;;;;;;;5.85;2.25;;;20.90;99.90;;;;;;5057161;28;20157;-76
2023/07/15 06:29:27;;;;;;;8.95;2.65;;;20.90;99.90;;;;;;5090069;28;20055;-76
2023/07/15 06:31:54;;;;;;;4.22;2.22;;;21.00;99.90;;;;;;5056928;28;20553;-76
2023/07/15 06:34:21;;;;;;;6.25;2.28;;;21.10;99.90;;;;;;5060462;28;20052;-77
2023/07/15 06:36:48;;;;;;;5.50;2.53;;;21.10;99.90;;;;;;5072709;28;20052;-76
2023/07/15 06:39:14;;;;;;;7.03;2.33;;;21.20;99.90;;;;;;5073187;28;20040;-76
2023/07/15 06:41:41;;;;;;;4.13;1.95;;;21.30;99.90;;;;;;5056340;28;20041;-76
2023/07/15 06:44:08;;;;;;;4.35;2.00;;;21.40;99.90;;;;;;5055961;28;20052;-76
2023/07/15 06:46:34;;;;;;;5.20;2.40;;;21.50;99.90;;;;;;5072977;28;20497;-76
2023/07/15 06:49:01;;;;;;;5.10;2.10;;;21.60;99.90;;;;;;5056578;28;20083;-77
2023/07/15 06:51:28;;;;;;;4.30;2.15;;;21.70;99.90;;;;;;5056536;28;20052;-76
2023/07/15 06:53:54;;;;;;;8.30;2.20;;;21.90;99.90;;;;;;5072267;28;20385;-76
2023/07/15 06:56:21;;;;;;;5.80;2.45;;;22.00;99.90;;;;;;5056386;28;20058;-76
2023/07/15 06:58:48;;;;;;;7.43;2.55;;;22.10;99.90;;;;;;5072227;28;20048;-77
2023/07/15 07:01:15;;;;;;;6.63;2.30;;;22.20;99.90;;;;;;5089702;28;20072;-77
2023/07/15 07:03:41;;;;;;;4.57;2.15;;;22.20;99.90;;;;;;5055954;28;20080;-77
2023/07/15 07:06:08;;;;;;;3.80;2.25;;;22.30;99.90;;;;;;5055234;28;20044;-77
2023/07/15 07:08:35;;;;;;;5.35;2.00;;;22.50;99.90;;;;;;5089412;28;20091;-77
2023/07/15 07:11:02;;;;;;;5.38;2.00;;;22.50;99.90;;;;;;5088863;28;20101;-77
2023/07/15 07:13:29;;;;;;;5.75;2.20;;;22.60;99.90;;;;;;5089554;28;20082;-77
2023/07/15 07:15:57;;;;;;;5.25;1.92;;;22.60;99.90;;;;;;5071893;28;20085;-78
2023/07/15 07:18:25;;;;;;;6.05;2.00;;;22.80;99.90;;;;;;5072415;28;20048;-78
2023/07/15 07:20:58;;;;;;;6.20;2.10;;;22.80;99.90;;;;;;5088554;28;20527;-79
2023/07/15 07:23:26;;;;;;;4.97;1.90;;;22.90;99.90;;;;;;5088936;28;20101;-79
2023/07/15 07:25:53;;;;;;;7.03;2.00;;;23.00;99.90;;;;;;5071888;28;20086;-78
2023/07/15 07:28:23;;;;;;;6.47;2.05;;;23.00;99.90;;;;;;5096917;28;20076;-78
2023/07/15 07:30:50;;;;;;;5.65;2.00;;;23.20;99.90;;;;;;5105259;28;20044;-78
2023/07/15 07:33:18;;;;;;;5.78;1.63;;;23.20;99.90;;;;;;5089064;28;20048;-80
2023/07/15 07:35:46;;;;;;;5.80;1.98;;;23.30;99.90;;;;;;5071461;28;20356;-77
2023/07/15 07:38:13;;;;;;;4.55;1.85;;;23.30;99.90;;;;;;5047874;28;20043;-79
2023/07/15 07:40:44;;;;;;;5.00;2.08;;;23.40;99.90;;;;;;5065165;28;20381;-80
2023/07/15 07:43:11;;;;;;;4.28;1.80;;;23.60;99.90;;;;;;5077388;28;20075;-79
2023/07/15 07:45:38;;;;;;;4.22;1.80;;;23.70;99.90;;;;;;5048233;28;20045;-80
2023/07/15 07:48:04;;;;;;;6.57;2.13;;;23.70;99.90;;;;;;5084073;28;20039;-79
2023/07/15 07:50:34;;;;;;;6.18;1.63;;;23.80;99.90;;;;;;5056474;28;20043;-79
2023/07/15 07:53:01;;;;;;;3.17;1.60;;;23.90;99.90;;;;;;5076443;28;20393;-79
2023/07/15 07:55:27;;;;;;;5.07;2.17;;;23.90;99.90;;;;;;5076850;28;20047;-80
2023/07/15 07:57:54;;;;;;;4.00;1.95;;;23.90;99.90;;;;;;5092741;28;20036;-77
2023/07/15 08:00:21;;;;;;;3.15;1.83;;;24.00;99.90;;;;;;5070643;28;20032;-79
2023/07/15 08:02:49;;;;;;;4.22;1.80;;;24.10;99.90;;;;;;5076565;28;20083;-79
2023/07/15 08:05:16;;;;;;;3.35;1.40;;;24.20;99.90;;;;;;5062575;28;20126;-79
2023/07/15 08:07:42;;;;;;;3.00;1.35;;;24.20;99.90;;;;;;5090464;28;20099;-80
2023/07/15 08:10:09;;;;;;;4.13;1.48;;;24.20;99.90;;;;;;5062769;28;20101;-79
2023/07/15 08:12:36;;;;;;;6.43;1.65;;;24.30;99.90;;;;;;5081034;28;20036;-79
2023/07/15 08:15:03;;;;;;;3.15;1.55;;;24.40;99.90;;;;;;5061644;28;20506;-80
2023/07/15 08:17:30;;;;;;;3.95;1.45;;;24.40;99.90;;;;;;5075368;28;20052;-79
2023/07/15 08:19:57;;;;;;;3.10;1.55;;;24.50;99.90;;;;;;5074200;28;20062;-80
2023/07/15 08:22:24;;;;;;;6.30;1.90;;;24.60;99.90;;;;;;5057558;28;20036;-79
2023/07/15 08:24:50;;;;;;;3.63;1.35;;;24.60;99.90;;;;;;5087593;28;20049;-79
2023/07/15 08:27:19;;;;;;;3.72;1.40;;;24.70;99.90;;;;;;5087823;28;20090;-80
2023/07/15 08:29:46;;;;;;;4.15;1.67;;;24.80;99.90;;;;;;5104110;28;20651;-80
2023/07/15 08:32:13;;;;;;;3.28;1.70;;;24.90;99.90;;;;;;5087086;28;20039;-80
2023/07/15 08:35:05;;;;;;;3.22;1.58;;;25.00;99.90;;;;;;5087642;28;20481;-79
2023/07/15 08:37:32;;;;;;;3.25;1.40;;;24.90;99.90;;;;;;5071361;28;20041;-80
2023/07/15 08:39:59;;;;;;;4.00;1.50;;;24.90;99.90;;;;;;5087159;28;20136;-80
2023/07/15 08:42:26;;;;;;;4.22;1.85;;;24.90;99.90;;;;;;5086900;28;20147;-80
2023/07/15 08:44:53;;;;;;;3.28;1.60;;;24.90;99.90;;;;;;5086879;28;20061;-80
2023/07/15 08:47:24;;;;;;;3.25;1.70;;;24.90;99.90;;;;;;5087428;28;20393;-80
2023/07/15 08:49:53;;;;;;;4.35;1.80;;;24.80;99.90;;;;;;5070871;28;20115;-80
2023/07/15 08:52:22;;;;;;;3.40;1.55;;;25.00;99.90;;;;;;5071074;28;20093;-80
2023/07/15 08:54:53;;;;;;;2.78;1.60;;;25.10;99.90;;;;;;5086596;28;20458;-80
2023/07/15 08:57:22;;;;;;;4.18;1.73;;;25.10;99.90;;;;;;5087284;28;20463;-80
2023/07/15 08:59:51;;;;;;;3.80;1.70;;;25.20;99.90;;;;;;5070873;28;20051;-80
2023/07/15 09:02:17;;;;;;;4.55;1.75;;;25.30;99.90;;;;;;5087094;28;20489;-80
2023/07/15 09:04:44;;;;;;;2.50;1.50;;;25.40;99.90;;;;;;5070484;28;20051;-80
2023/07/15 09:07:11;;;;;;;3.03;1.52;;;25.40;99.90;;;;;;5086660;28;20036;-80
2023/07/15 09:09:39;;;;;;;3.15;1.50;;;25.40;99.90;;;;;;5086226;28;20041;-80
2023/07/15 09:12:10;;;;;;;3.85;1.60;;;25.50;99.90;;;;;;5053152;28;20040;-79
2023/07/15 09:14:45;;;;;;;3.92;1.80;;;25.60;99.90;;;;;;5087226;28;20045;-79
2023/07/15 09:17:15;;;;;;;;;;;25.60;99.90;;;;;;5086887;28;20048;-81
2023/07/15 09:19:43;;;;;;;3.83;1.65;;;25.80;99.90;;;;;;5078043;28;20385;-80
2023/07/15 09:22:10;;;;;;;3.58;1.60;;;26.10;99.90;;;;;;5071206;28;20036;-79
2023/07/15 09:24:37;;;;;;;4.57;1.50;;;26.20;99.90;;;;;;5062670;28;20448;-81
2023/07/15 09:27:05;;;;;;;3.70;1.75;;;26.20;99.90;;;;;;5042269;28;20040;-81
2023/07/15 09:29:33;;;;;;;2.30;1.30;;;26.20;99.90;;;;;;5075980;28;20040;-81
2023/07/15 09:31:59;;;;;;;3.50;1.55;;;26.40;99.90;;;;;;5089941;28;20042;-81
2023/07/15 09:34:26;;;;;;;5.65;1.50;;;26.50;99.90;;;;;;5067850;28;20048;-81
2023/07/15 09:36:54;;;;;;;4.05;1.48;;;26.60;99.90;;;;;;5053906;28;20042;-80
2023/07/15 09:39:22;;;;;;;3.92;1.50;;;26.70;99.90;;;;;;5069555;28;20032;-80
2023/07/15 09:42:03;;;;;;;2.55;1.35;;;26.50;99.90;;;;;;5070155;28;20040;-80
2023/07/15 09:44:39;;;;;;;3.17;1.30;;;26.60;99.90;;;;;;5061140;28;20048;-80
2023/07/15 09:47:07;;;;;;;5.47;1.60;;;26.60;99.90;;;;;;5110105;28;20090;-80
2023/07/15 09:49:35;;;;;;;3.83;1.55;;;26.50;99.90;;;;;;5067138;28;20037;-79
2023/07/15 09:52:05;;;;;;;7.05;1.70;;;26.30;99.90;;;;;;5065295;28;20051;-79
2023/07/15 09:54:33;;;;;;;3.75;1.60;;;26.20;99.90;;;;;;5048556;28;20080;-80
2023/07/15 09:57:03;;;;;;;4.45;1.65;;;26.00;99.90;;;;;;5050500;28;20575;-79
2023/07/15 09:59:52;;;;;;;3.85;1.50;;;25.70;99.90;;;;;;5070765;28;20662;-79
2023/07/15 10:02:42;;;;;;;3.67;1.70;;;25.70;99.90;;;;;;5068358;28;20515;-80
2023/07/15 10:05:14;;;;;;;3.70;1.50;;;25.60;99.90;;;;;;5068462;28;20064;-79
2023/07/15 10:07:41;;;;;;;3.97;1.60;;;25.60;99.90;;;;;;5037096;28;20070;-79
2023/07/15 10:10:09;;;;;;;3.08;1.60;;;25.50;99.90;;;;;;5051757;28;20369;-79
2023/07/15 10:12:37;;;;;;;3.22;1.45;;;25.40;99.90;;;;;;5066637;28;20029;-79
2023/07/15 10:15:05;;;;;;;3.88;1.55;;;25.60;99.90;;;;;;5067703;28;20555;-79
2023/07/15 10:17:39;;;;;;;5.10;1.63;;;25.80;99.90;;;;;;5068421;28;20590;-79
2023/07/15 10:20:10;;;;;;;3.30;1.50;;;25.90;99.90;;;;;;5084502;28;20543;-80
2023/07/15 10:22:38;;;;;;;4.40;1.48;;;26.00;99.90;;;;;;5084713;28;20047;-79
2023/07/15 10:25:10;;;;;;;3.50;1.60;;;26.20;99.90;;;;;;5085220;28;20036;-78
2023/07/15 10:27:37;;;;;;;4.07;1.67;;;26.20;99.90;;;;;;5065724;28;20620;-80
2023/07/15 10:30:28;;;;;;;4.50;1.60;;;26.20;99.90;;;;;;5064819;28;20067;-80
2023/07/15 10:32:58;;;;;;;4.10;1.75;;;26.30;99.90;;;;;;5064503;28;20053;-80
2023/07/15 10:35:32;;;;;;;4.03;1.40;;;26.40;99.90;;;;;;5064725;28;20041;-80
2023/07/15 10:38:19;;;;;;;2.80;1.50;;;26.50;99.90;;;;;;5051613;28;20139;-80
2023/07/15 10:40:51;;;;;;;3.00;1.40;;;26.40;99.90;;;;;;5070110;28;20040;-80
2023/07/15 10:43:22;;;;;;;3.10;1.30;;;26.50;99.90;;;;;;5054502;28;20409;-86
2023/07/15 10:45:54;;;;;;;2.65;1.40;;;26.60;99.90;;;;;;5089296;28;20055;-80
2023/07/15 10:48:22;;;;;;;3.40;1.67;;;26.70;99.90;;;;;;5094488;28;20541;-81
2023/07/15 10:50:53;;;;;;;3.88;1.60;;;26.60;99.90;;;;;;5043902;28;20071;-81
2023/07/15 10:53:26;;;;;;;2.80;1.35;;;26.50;99.90;;;;;;5076018;28;20032;-80
2023/07/15 10:56:01;;;;;;;3.45;1.40;;;26.60;99.90;;;;;;5082880;28;20380;-80
2023/07/15 10:58:33;;;;;;;4.50;1.55;;;26.80;99.90;;;;;;5095096;28;20112;-79
2023/07/15 11:01:04;;;;;;;6.18;1.60;;;26.70;99.90;;;;;;5099644;28;20040;-80
2023/07/15 11:03:34;;;;;;;6.25;1.60;;;26.70;99.90;;;;;;5093404;28;20382;-80
2023/07/15 11:06:02;;;;;;;2.17;1.10;;;26.70;99.90;;;;;;5100621;28;20059;-82
2023/07/15 11:08:30;;;;;;;3.65;1.50;;;26.70;99.90;;;;;;5071499;28;20577;-81
2023/07/15 11:11:06;;;;;;;5.03;1.40;;;26.70;99.90;;;;;;5095879;28;20045;-81
2023/07/15 11:13:38;;;;;;;4.63;1.45;;;26.70;99.90;;;;;;5073604;28;20036;-81
2023/07/15 11:16:05;;;;;;;3.17;1.60;;;26.80;99.90;;;;;;5073472;28;20051;-80
2023/07/15 11:18:32;;;;;;;9.35;1.60;;;27.10;99.90;;;;;;5087835;28;20101;-81
2023/07/15 11:21:00;;;;;;;3.50;1.52;;;27.10;99.90;;;;;;5055728;28;20040;-80
2023/07/15 11:23:28;;;;;;;4.05;1.55;;;27.00;99.90;;;;;;5087040;28;20127;-81
2023/07/15 11:25:57;;;;;;;2.97;1.35;;;26.90;99.90;;;;;;5071031;28;20040;-80
2023/07/15 11:28:24;;;;;;;4.90;1.50;;;26.70;99.90;;;;;;5104402;28;20048;-80
2023/07/15 11:30:50;;;;;;;3.80;1.20;;;26.70;99.90;;;;;;5087438;28;20131;-82
2023/07/15 11:33:17;;;;;;;4.03;1.45;;;26.60;99.90;;;;;;5070207;28;20135;-80
2023/07/15 11:35:45;;;;;;;3.70;1.40;;;26.60;99.90;;;;;;5071103;28;20040;-81
2023/07/15 11:38:15;;;;;;;4.25;1.50;;;26.50;99.90;;;;;;5071242;28;20040;-81
2023/07/15 11:40:59;;;;;;;2.47;1.30;;;26.50;99.90;;;;;;5087394;28;20093;-80
2023/07/15 11:43:28;;;;;;;3.92;1.50;;;26.40;99.90;;;;;;5087337;28;20037;-81
2023/07/15 11:45:57;;;;;;;2.88;1.48;;;26.30;99.90;;;;;;5104292;28;20067;-80
2023/07/15 11:48:35;;;;;;;3.35;1.55;;;26.20;99.90;;;;;;5087010;28;20051;-81
2023/07/15 11:51:07;;;;;;;7.60;1.42;;;26.20;99.90;;;;;;5087549;28;20496;-81
2023/07/15 11:53:34;;;;;;;2.83;1.52;;;26.30;99.90;;;;;;5103173;28;20044;-80
2023/07/15 11:56:02;;;;;;;4.78;1.70;;;26.20;99.90;;;;;;5070581;28;20496;-80
2023/07/15 11:58:41;;;;;;;2.75;1.38;;;26.20;99.90;;;;;;5086614;28;20062;-80
2023/07/15 12:01:19;;;;;;;4.32;1.48;;;26.10;99.90;;;;;;5070748;28;20515;-80
2023/07/15 12:03:48;;;;;;;5.07;1.42;;;26.00;99.90;;;;;;5070285;28;20079;-80
2023/07/15 12:06:16;;;;;;;6.28;2.30;;;25.90;99.90;;;;;;5087330;28;20140;-80
2023/07/15 12:09:04;;;;;;;3.80;1.42;;;25.80;99.90;;;;;;5086668;28;20040;-80
2023/07/15 12:11:33;;;;;;;3.92;1.25;;;25.80;99.90;;;;;;5083886;28;20111;-80
2023/07/15 12:14:01;;;;;;;4.25;1.52;;;25.70;99.90;;;;;;5070486;28;20072;-80
2023/07/15 12:16:29;;;;;;;3.28;1.50;;;25.60;99.90;;;;;;5080627;28;20099;-80
2023/07/15 12:18:57;;;;;;;4.50;1.70;;;25.40;99.90;;;;;;5070344;28;20047;-81
2023/07/15 12:21:24;;;;;;;2.92;1.33;;;25.40;99.90;;;;;;5069871;28;20071;-80
2023/07/15 12:23:51;;;;;;;4.75;1.67;;;25.40;99.90;;;;;;5069965;28;20102;-80
2023/07/15 12:26:21;;;;;;;4.18;1.55;;;25.40;99.90;;;;;;5087244;28;20381;-80
2023/07/15 12:28:48;;;;;;;4.95;1.55;;;25.30;99.90;;;;;;5070259;28;20044;-80
2023/07/15 12:31:16;;;;;;;3.97;1.73;;;25.30;99.90;;;;;;5069773;28;20044;-80
2023/07/15 12:33:44;;;;;;;4.53;1.80;;;25.20;99.90;;;;;;5120007;28;20079;-80
2023/07/15 12:36:13;;;;;;;4.00;1.73;;;25.30;99.90;;;;;;5049416;28;20048;-80
2023/07/15 12:38:40;;;;;;;5.50;1.83;;;25.50;99.90;;;;;;5068064;28;20040;-80
2023/07/15 12:41:07;;;;;;;3.10;1.52;;;25.60;99.90;;;;;;5069497;28;20048;-80
2023/07/15 12:43:35;;;;;;;5.10;1.55;;;25.80;99.90;;;;;;5052957;28;20059;-80
2023/07/15 12:46:02;;;;;;;3.15;1.70;;;26.10;99.90;;;;;;5075815;28;20044;-80
2023/07/15 12:48:30;;;;;;;4.22;1.60;;;26.40;99.90;;;;;;5075092;28;20127;-80
2023/07/15 12:50:57;;;;;;;3.63;1.60;;;26.60;99.90;;;;;;5084044;28;20047;-79
2023/07/15 12:53:25;;;;;;;3.10;1.60;;;26.50;99.90;;;;;;5066601;28;20536;-80